GTBK1: Arkansas River At Great Bend

Data processed at Wed May 22 2019 23:50


All information presented herein is the property of the government of the United States of America and may be revised or deleted at any time without prior notice.
Dissemination of this information without the expressed written consent of the Public Affairs Office, Tulsa District U.S. Army Corps of Engineers is strictly prohibited.
These data are gathered electronically and, as presented, have not undergone any form of quality control. These data are not guaranteed to be valid or correct.
Go to home page.
Go to station list.
Go to home page.

Upstream stations:

Downstream station:
Previous Day
Next Day
Current Day
    
SHEF ID:       GTBK1     ARKANSAS R AT GREAT BEND, KS
STATION TYPE:  

               PRECIP     STAGE  RIV-FLOW  AIR-TEMP  BAT-LOAD
                   in        ft       cfs         F      volt
              Ccp-Rev   Ccp-Rev   Ccp-Rev   Ccp-Rev   Ccp-Rev
(US/Central)
05/22 00:00      0.00      8.02      2730     46.91     12.89
05/22 01:00      0.00      8.17      2864     45.92     12.89
05/22 02:00      0.00      8.36      3040     44.82     12.83
05/22 03:00      0.00      8.46      3135     43.74     12.83
05/22 04:00      0.00      8.55      3222     42.66     12.83
05/22 05:00      0.00      8.69      3361     42.30     12.77
05/22 06:00      0.00      8.82      3493     42.37     12.77
05/22 07:00      0.00      8.94      3618     43.57     12.77
05/22 08:00      0.00      9.05      3735     47.99     12.83
05/22 09:00      0.00      9.24      3943     50.82     13.59
05/22 10:00      0.00      9.26      3965     56.13     14.12
05/22 11:00      0.00      9.44      4169     59.75     13.94
05/22 12:00      0.00      9.52      4262     65.19     13.88
05/22 13:00      0.00      9.64      4404     69.13     14.06
05/22 14:00      0.00      9.71      4488     71.43     14.12
05/22 15:00      0.00      9.79      4584     72.59     14.06
05/22 16:00      0.00      9.86      4669     73.32     13.59
05/22 17:00      0.00      9.93      4755     73.73     13.30
05/22 18:00      0.00     10.04      4892     74.22     13.24
05/22 19:00      0.00     10.15      5031     70.85     13.18
05/22 20:00      0.00     10.23      5134     68.87     13.07
05/22 21:00      0.00     10.25      5160     62.79     13.00
05/22 22:00      0.00     10.31      5238     57.99     13.00
05/22 23:00      0.00     10.38      5331     58.64     12.95